sensor_id;sensor_type;location;lat;lon;timestamp;pressure;altitude;pressure_sealevel;temperature;humidity
50166;BME280;36071;48.140;11.516;2023-05-01T00:03:52;95400.0;;;11.6;54.3
50166;BME280;36071;48.140;11.516;2023-05-01T00:08:52;95390.0;;;11.6;54.3
50166;BME280;36071;48.140;11.516;2023-05-01T00:13:52;95380.0;;;11.6;54.5
50166;BME280;36071;48.140;11.516;2023-05-01T00:18:52;95370.0;;;11.5;54.6
50166;BME280;36071;48.140;11.516;2023-05-01T00:23:52;95370.0;;;11.4;54.9
50166;BME280;36071;48.140;11.516;2023-05-01T00:28:52;95370.0;;;11.4;55.2
50166;BME280;36071;48.140;11.516;2023-05-01T00:33:52;95360.0;;;11.4;55.3
50166;BME280;36071;48.140;11.516;2023-05-01T00:38:52;95360.0;;;11.3;55.4
50166;BME280;36071;48.140;11.516;2023-05-01T00:48:52;95360.0;;;11.3;55.5
50166;BME280;36071;48.140;11.516;2023-05-01T00:53:52;95350.0;;;11.2;55.9
50166;BME280;36071;48.140;11.516;2023-05-01T00:58:52;95350.0;;;11.1;56.2
50166;BME280;36071;48.140;11.516;2023-05-01T01:03:52;95350.0;;;11.1;55.9
50166;BME280;36071;48.140;11.516;2023-05-01T01:08:54;95350.0;;;11.1;56.6
50166;BME280;36071;48.140;11.516;2023-05-01T01:13:55;95340.0;;;11.0;56.9
50166;BME280;36071;48.140;11.516;2023-05-01T01:18:55;95340.0;;;10.9;57.5
50166;BME280;36071;48.140;11.516;2023-05-01T01:23:59;95340.0;;;10.9;58.1
50166;BME280;36071;48.140;11.516;2023-05-01T01:29:01;95330.0;;;10.9;58.1
50166;BME280;36071;48.140;11.516;2023-05-01T01:34:00;95330.0;;;10.8;58.1
50166;BME280;36071;48.140;11.516;2023-05-01T01:38:53;95320.0;;;10.6;58.3
50166;BME280;36071;48.140;11.516;2023-05-01T01:43:54;95320.0;;;10.6;58.5
50166;BME280;36071;48.140;11.516;2023-05-01T01:48:52;95320.0;;;10.5;58.7
50166;BME280;36071;48.140;11.516;2023-05-01T01:53:52;95310.0;;;10.5;59.1
50166;BME280;36071;48.140;11.516;2023-05-01T01:58:52;95310.0;;;10.5;59.3
50166;BME280;36071;48.140;11.516;2023-05-01T02:03:52;95300.0;;;10.5;58.7
50166;BME280;36071;48.140;11.516;2023-05-01T02:08:52;95300.0;;;10.4;59.2
50166;BME280;36071;48.140;11.516;2023-05-01T02:13:52;95300.0;;;10.4;59.0
50166;BME280;36071;48.140;11.516;2023-05-01T02:18:52;95290.0;;;10.4;59.6
50166;BME280;36071;48.140;11.516;2023-05-01T02:23:52;95300.0;;;10.4;59.6
50166;BME280;36071;48.140;11.516;2023-05-01T02:28:52;95290.0;;;10.3;59.8
50166;BME280;36071;48.140;11.516;2023-05-01T02:33:52;95280.0;;;10.3;60.1
50166;BME280;36071;48.140;11.516;2023-05-01T02:38:52;95280.0;;;10.3;60.3
50166;BME280;36071;48.140;11.516;2023-05-01T02:43:53;95270.0;;;10.2;60.7
50166;BME280;36071;48.140;11.516;2023-05-01T02:48:52;95260.0;;;10.1;60.6
50166;BME280;36071;48.140;11.516;2023-05-01T02:53:52;95260.0;;;10.0;61.4
50166;BME280;36071;48.140;11.516;2023-05-01T02:58:52;95270.0;;;10.0;61.4
50166;BME280;36071;48.140;11.516;2023-05-01T03:03:52;95270.0;;;10.1;61.4
50166;BME280;36071;48.140;11.516;2023-05-01T03:08:52;95260.0;;;10.0;61.6
50166;BME280;36071;48.140;11.516;2023-05-01T03:13:52;95260.0;;;10.0;61.8
50166;BME280;36071;48.140;11.516;2023-05-01T03:18:52;95260.0;;;10.0;62.2
50166;BME280;36071;48.140;11.516;2023-05-01T03:23:52;95260.0;;;9.9;62.3
50166;BME280;36071;48.140;11.516;2023-05-01T03:28:52;95260.0;;;9.9;62.9
50166;BME280;36071;48.140;11.516;2023-05-01T03:33:52;95140.0;;;9.1;62.8
50166;BME280;36071;48.140;11.516;2023-05-01T03:38:52;95260.0;;;9.9;63.6
50166;BME280;36071;48.140;11.516;2023-05-01T03:43:52;95250.0;;;9.8;63.8
50166;BME280;36071;48.140;11.516;2023-05-01T03:48:52;95250.0;;;9.6;65.1
50166;BME280;36071;48.140;11.516;2023-05-01T03:53:52;95240.0;;;9.5;65.9
50166;BME280;36071;48.140;11.516;2023-05-01T03:58:52;95250.0;;;9.5;65.7
50166;BME280;36071;48.140;11.516;2023-05-01T04:03:52;95240.0;;;9.6;65.4
50166;BME280;36071;48.140;11.516;2023-05-01T04:08:52;95230.0;;;9.6;65.9
50166;BME280;36071;48.140;11.516;2023-05-01T04:13:52;95240.0;;;9.6;65.1
50166;BME280;36071;48.140;11.516;2023-05-01T04:18:52;95240.0;;;9.6;63.5
50166;BME280;36071;48.140;11.516;2023-05-01T04:28:52;95240.0;;;9.6;63.2
50166;BME280;36071;48.140;11.516;2023-05-01T04:33:52;95230.0;;;9.6;63.3
50166;BME280;36071;48.140;11.516;2023-05-01T04:38:52;95240.0;;;9.6;63.1
50166;BME280;36071;48.140;11.516;2023-05-01T04:43:52;95240.0;;;9.6;62.8
50166;BME280;36071;48.140;11.516;2023-05-01T04:48:52;95240.0;;;9.7;63.0
50166;BME280;36071;48.140;11.516;2023-05-01T04:53:52;95240.0;;;9.8;63.2
50166;BME280;36071;48.140;11.516;2023-05-01T04:58:52;95240.0;;;9.7;62.5
50166;BME280;36071;48.140;11.516;2023-05-01T05:03:52;95240.0;;;9.7;62.7
50166;BME280;36071;48.140;11.516;2023-05-01T05:08:52;95240.0;;;9.8;64.2
50166;BME280;36071;48.140;11.516;2023-05-01T05:13:52;95240.0;;;9.9;64.2
50166;BME280;36071;48.140;11.516;2023-05-01T05:18:53;95250.0;;;9.9;63.8
50166;BME280;36071;48.140;11.516;2023-05-01T05:23:52;95250.0;;;10.0;62.9
50166;BME280;36071;48.140;11.516;2023-05-01T05:28:52;95250.0;;;10.1;61.5
50166;BME280;36071;48.140;11.516;2023-05-01T05:33:52;95250.0;;;10.1;61.2
50166;BME280;36071;48.140;11.516;2023-05-01T05:38:52;95250.0;;;10.2;60.8
50166;BME280;36071;48.140;11.516;2023-05-01T05:43:52;95250.0;;;10.2;60.2
50166;BME280;36071;48.140;11.516;2023-05-01T05:48:52;95260.0;;;10.3;60.2
50166;BME280;36071;48.140;11.516;2023-05-01T05:53:52;95260.0;;;10.2;60.1
50166;BME280;36071;48.140;11.516;2023-05-01T05:58:52;95260.0;;;10.3;60.3
50166;BME280;36071;48.140;11.516;2023-05-01T06:03:52;95260.0;;;10.3;60.1
50166;BME280;36071;48.140;11.516;2023-05-01T06:08:52;95260.0;;;10.4;59.2
50166;BME280;36071;48.140;11.516;2023-05-01T06:13:52;95260.0;;;10.4;59.1
50166;BME280;36071;48.140;11.516;2023-05-01T06:18:52;95260.0;;;10.4;59.0
50166;BME280;36071;48.140;11.516;2023-05-01T06:23:52;95250.0;;;10.5;59.3
50166;BME280;36071;48.140;11.516;2023-05-01T06:28:52;95250.0;;;10.6;59.1
50166;BME280;36071;48.140;11.516;2023-05-01T06:33:52;95260.0;;;10.6;58.5
50166;BME280;36071;48.140;11.516;2023-05-01T06:38:52;95250.0;;;10.7;58.8
50166;BME280;36071;48.140;11.516;2023-05-01T06:43:52;95260.0;;;10.8;58.5
50166;BME280;36071;48.140;11.516;2023-05-01T06:48:52;95260.0;;;10.8;58.4
50166;BME280;36071;48.140;11.516;2023-05-01T06:53:52;95260.0;;;10.9;58.8
50166;BME280;36071;48.140;11.516;2023-05-01T06:58:52;95260.0;;;10.9;59.5
50166;BME280;36071;48.140;11.516;2023-05-01T07:03:52;95260.0;;;11.0;59.1
50166;BME280;36071;48.140;11.516;2023-05-01T07:08:52;95270.0;;;11.0;59.5
50166;BME280;36071;48.140;11.516;2023-05-01T07:13:52;95260.0;;;11.0;59.5
50166;BME280;36071;48.140;11.516;2023-05-01T07:18:52;95260.0;;;11.2;59.6
50166;BME280;36071;48.140;11.516;2023-05-01T07:28:53;95260.0;;;11.3;59.4
50166;BME280;36071;48.140;11.516;2023-05-01T07:33:52;95270.0;;;11.4;59.0
50166;BME280;36071;48.140;11.516;2023-05-01T07:38:52;95270.0;;;11.4;58.8
50166;BME280;36071;48.140;11.516;2023-05-01T07:43:52;95270.0;;;11.5;59.1
50166;BME280;36071;48.140;11.516;2023-05-01T07:48:52;95270.0;;;11.6;58.4
50166;BME280;36071;48.140;11.516;2023-05-01T07:53:52;95280.0;;;11.7;58.0
50166;BME280;36071;48.140;11.516;2023-05-01T07:58:52;95280.0;;;11.7;58.7
50166;BME280;36071;48.140;11.516;2023-05-01T08:03:52;95280.0;;;11.8;58.7
50166;BME280;36071;48.140;11.516;2023-05-01T08:08:52;95290.0;;;11.8;59.3
50166;BME280;36071;48.140;11.516;2023-05-01T08:13:52;95280.0;;;11.8;59.0
50166;BME280;36071;48.140;11.516;2023-05-01T08:18:52;95290.0;;;11.7;59.7
50166;BME280;36071;48.140;11.516;2023-05-01T08:23:53;95290.0;;;11.7;60.5
50166;BME280;36071;48.140;11.516;2023-05-01T08:28:52;95300.0;;;11.8;60.7
50166;BME280;36071;48.140;11.516;2023-05-01T08:33:52;95300.0;;;11.7;61.2
50166;BME280;36071;48.140;11.516;2023-05-01T08:38:52;95300.0;;;11.7;61.8
50166;BME280;36071;48.140;11.516;2023-05-01T08:43:52;95290.0;;;11.6;63.2
50166;BME280;36071;48.140;11.516;2023-05-01T08:48:53;95300.0;;;11.7;63.7
50166;BME280;36071;48.140;11.516;2023-05-01T08:53:52;95300.0;;;11.8;63.8
50166;BME280;36071;48.140;11.516;2023-05-01T08:58:52;95310.0;;;11.7;66.0
50166;BME280;36071;48.140;11.516;2023-05-01T09:03:52;95310.0;;;11.6;67.9
50166;BME280;36071;48.140;11.516;2023-05-01T09:08:52;95320.0;;;11.7;70.6
50166;BME280;36071;48.140;11.516;2023-05-01T09:13:52;95320.0;;;11.6;73.1
50166;BME280;36071;48.140;11.516;2023-05-01T09:18:52;95320.0;;;11.4;74.5
50166;BME280;36071;48.140;11.516;2023-05-01T09:23:52;95330.0;;;11.2;76.5
50166;BME280;36071;48.140;11.516;2023-05-01T09:28:52;95330.0;;;11.1;77.6
50166;BME280;36071;48.140;11.516;2023-05-01T09:33:53;95330.0;;;11.1;78.3
50166;BME280;36071;48.140;11.516;2023-05-01T09:38:52;95330.0;;;11.1;78.4
50166;BME280;36071;48.140;11.516;2023-05-01T09:43:53;95330.0;;;11.0;79.8
50166;BME280;36071;48.140;11.516;2023-05-01T09:48:53;95340.0;;;11.0;80.6
50166;BME280;36071;48.140;11.516;2023-05-01T09:53:53;95350.0;;;10.9;79.4
50166;BME280;36071;48.140;11.516;2023-05-01T09:58:52;95340.0;;;10.9;81.1
50166;BME280;36071;48.140;11.516;2023-05-01T10:03:52;95340.0;;;11.0;80.7
50166;BME280;36071;48.140;11.516;2023-05-01T10:08:52;95340.0;;;11.1;80.4
50166;BME280;36071;48.140;11.516;2023-05-01T10:14:08;95350.0;;;11.0;82.0
50166;BME280;36071;48.140;11.516;2023-05-01T10:18:53;95340.0;;;11.1;81.2
50166;BME280;36071;48.140;11.516;2023-05-01T10:23:52;95350.0;;;11.1;81.5
50166;BME280;36071;48.140;11.516;2023-05-01T10:28:53;95350.0;;;11.1;85.8
50166;BME280;36071;48.140;11.516;2023-05-01T10:33:52;95350.0;;;11.1;84.2
50166;BME280;36071;48.140;11.516;2023-05-01T10:38:52;95340.0;;;11.0;84.2
50166;BME280;36071;48.140;11.516;2023-05-01T10:43:59;95340.0;;;11.1;85.3
50166;BME280;36071;48.140;11.516;2023-05-01T10:48:55;95330.0;;;11.1;85.9
50166;BME280;36071;48.140;11.516;2023-05-01T10:54:23;95340.0;;;11.0;86.5
50166;BME280;36071;48.140;11.516;2023-05-01T10:58:53;95320.0;;;11.0;89.0
50166;BME280;36071;48.140;11.516;2023-05-01T11:08:53;95320.0;;;11.1;89.9
50166;BME280;36071;48.140;11.516;2023-05-01T11:14:00;95320.0;;;11.1;88.7
50166;BME280;36071;48.140;11.516;2023-05-01T11:18:52;95310.0;;;11.3;88.0
50166;BME280;36071;48.140;11.516;2023-05-01T11:23:52;95310.0;;;11.4;87.0
50166;BME280;36071;48.140;11.516;2023-05-01T11:28:53;95300.0;;;11.4;87.2
50166;BME280;36071;48.140;11.516;2023-05-01T11:33:54;95310.0;;;11.4;89.4
50166;BME280;36071;48.140;11.516;2023-05-01T11:38:53;95300.0;;;11.2;89.7
50166;BME280;36071;48.140;11.516;2023-05-01T11:43:52;95310.0;;;11.4;90.2
50166;BME280;36071;48.140;11.516;2023-05-01T11:48:52;95300.0;;;11.4;90.1
50166;BME280;36071;48.140;11.516;2023-05-01T11:54:00;95310.0;;;11.7;89.3
50166;BME280;36071;48.140;11.516;2023-05-01T11:58:52;95300.0;;;11.8;88.5
50166;BME280;36071;48.140;11.516;2023-05-01T12:03:52;95310.0;;;11.9;89.7
50166;BME280;36071;48.140;11.516;2023-05-01T12:08:52;95300.0;;;11.9;88.9
50166;BME280;36071;48.140;11.516;2023-05-01T12:13:52;95300.0;;;12.0;89.8
50166;BME280;36071;48.140;11.516;2023-05-01T12:18:52;95320.0;;;12.2;90.5
50166;BME280;36071;48.140;11.516;2023-05-01T12:23:52;95290.0;;;12.4;90.6
50166;BME280;36071;48.140;11.516;2023-05-01T12:28:52;95310.0;;;12.4;88.2
50166;BME280;36071;48.140;11.516;2023-05-01T12:33:53;95310.0;;;12.4;85.3
50166;BME280;36071;48.140;11.516;2023-05-01T12:38:53;95300.0;;;12.4;85.3
50166;BME280;36071;48.140;11.516;2023-05-01T12:43:52;95300.0;;;12.4;86.3
50166;BME280;36071;48.140;11.516;2023-05-01T12:48:52;95310.0;;;12.5;84.3
50166;BME280;36071;48.140;11.516;2023-05-01T12:53:52;95320.0;;;12.6;82.4
50166;BME280;36071;48.140;11.516;2023-05-01T12:59:14;95310.0;;;12.7;81.2
50166;BME280;36071;48.140;11.516;2023-05-01T13:03:52;95310.0;;;12.8;79.9
50166;BME280;36071;48.140;11.516;2023-05-01T13:08:52;95310.0;;;12.9;80.8
50166;BME280;36071;48.140;11.516;2023-05-01T13:13:52;95300.0;;;13.0;79.8
50166;BME280;36071;48.140;11.516;2023-05-01T13:18:52;95300.0;;;13.2;79.6
50166;BME280;36071;48.140;11.516;2023-05-01T13:23:53;95300.0;;;13.4;75.2
50166;BME280;36071;48.140;11.516;2023-05-01T13:28:52;95290.0;;;13.5;75.4
50166;BME280;36071;48.140;11.516;2023-05-01T13:33:52;95300.0;;;13.5;73.0
50166;BME280;36071;48.140;11.516;2023-05-01T13:38:53;95300.0;;;13.7;69.9
50166;BME280;36071;48.140;11.516;2023-05-01T13:43:55;95310.0;;;13.5;71.8
50166;BME280;36071;48.140;11.516;2023-05-01T13:48:52;95300.0;;;13.6;74.1
50166;BME280;36071;48.140;11.516;2023-05-01T13:53:52;95300.0;;;13.6;71.1
50166;BME280;36071;48.140;11.516;2023-05-01T13:58:52;95290.0;;;13.6;72.2
50166;BME280;36071;48.140;11.516;2023-05-01T14:03:53;95290.0;;;13.7;70.9
50166;BME280;36071;48.140;11.516;2023-05-01T14:08:52;95290.0;;;13.6;72.3
50166;BME280;36071;48.140;11.516;2023-05-01T14:13:52;95280.0;;;13.6;72.2
50166;BME280;36071;48.140;11.516;2023-05-01T14:18:52;95280.0;;;13.6;71.3
50166;BME280;36071;48.140;11.516;2023-05-01T14:23:52;95280.0;;;13.8;70.3
50166;BME280;36071;48.140;11.516;2023-05-01T14:28:52;95280.0;;;13.9;70.7
50166;BME280;36071;48.140;11.516;2023-05-01T14:33:53;95280.0;;;14.0;67.8
50166;BME280;36071;48.140;11.516;2023-05-01T14:38:54;95290.0;;;14.0;67.5
50166;BME280;36071;48.140;11.516;2023-05-01T14:43:52;95300.0;;;14.1;67.3
50166;BME280;36071;48.140;11.516;2023-05-01T14:53:52;95290.0;;;13.9;67.3
50166;BME280;36071;48.140;11.516;2023-05-01T14:58:52;95300.0;;;14.0;65.7
50166;BME280;36071;48.140;11.516;2023-05-01T15:03:52;95300.0;;;13.9;65.9
50166;BME280;36071;48.140;11.516;2023-05-01T15:08:52;95290.0;;;13.9;66.6
50166;BME280;36071;48.140;11.516;2023-05-01T15:13:53;95310.0;;;13.9;66.3
50166;BME280;36071;48.140;11.516;2023-05-01T15:18:52;95310.0;;;13.8;66.4
50166;BME280;36071;48.140;11.516;2023-05-01T15:23:52;95310.0;;;13.8;67.5
50166;BME280;36071;48.140;11.516;2023-05-01T15:28:52;95310.0;;;13.7;68.5
50166;BME280;36071;48.140;11.516;2023-05-01T15:33:52;95310.0;;;13.7;68.6
50166;BME280;36071;48.140;11.516;2023-05-01T15:38:52;95320.0;;;13.7;69.1
50166;BME280;36071;48.140;11.516;2023-05-01T15:43:52;95320.0;;;13.7;70.3
50166;BME280;36071;48.140;11.516;2023-05-01T15:48:52;95310.0;;;13.6;70.6
50166;BME280;36071;48.140;11.516;2023-05-01T15:53:52;95320.0;;;13.6;69.6
50166;BME280;36071;48.140;11.516;2023-05-01T15:58:52;95320.0;;;13.4;71.4
50166;BME280;36071;48.140;11.516;2023-05-01T16:03:52;95320.0;;;13.4;72.7
50166;BME280;36071;48.140;11.516;2023-05-01T16:08:52;95330.0;;;13.4;74.5
50166;BME280;36071;48.140;11.516;2023-05-01T16:13:52;95330.0;;;13.3;75.0
50166;BME280;36071;48.140;11.516;2023-05-01T16:18:52;95320.0;;;13.3;77.2
50166;BME280;36071;48.140;11.516;2023-05-01T16:23:53;95330.0;;;13.2;77.3
50166;BME280;36071;48.140;11.516;2023-05-01T16:28:52;95330.0;;;13.1;77.1
50166;BME280;36071;48.140;11.516;2023-05-01T16:33:52;95330.0;;;12.9;79.1
50166;BME280;36071;48.140;11.516;2023-05-01T16:38:52;95340.0;;;12.9;81.1
50166;BME280;36071;48.140;11.516;2023-05-01T16:43:52;95340.0;;;12.8;82.9
50166;BME280;36071;48.140;11.516;2023-05-01T16:48:52;95330.0;;;12.6;84.9
50166;BME280;36071;48.140;11.516;2023-05-01T16:53:52;95350.0;;;12.6;85.8
50166;BME280;36071;48.140;11.516;2023-05-01T16:58:52;95340.0;;;12.6;87.4
50166;BME280;36071;48.140;11.516;2023-05-01T17:03:52;95340.0;;;12.4;89.5
50166;BME280;36071;48.140;11.516;2023-05-01T17:08:52;95350.0;;;12.5;90.6
50166;BME280;36071;48.140;11.516;2023-05-01T17:13:52;95360.0;;;12.5;91.8
50166;BME280;36071;48.140;11.516;2023-05-01T17:18:52;95370.0;;;12.4;93.7
50166;BME280;36071;48.140;11.516;2023-05-01T17:28:52;95370.0;;;12.2;95.4
50166;BME280;36071;48.140;11.516;2023-05-01T17:33:52;95370.0;;;12.3;93.8
50166;BME280;36071;48.140;11.516;2023-05-01T17:38:52;95370.0;;;12.2;94.0
50166;BME280;36071;48.140;11.516;2023-05-01T17:43:52;95380.0;;;12.1;94.6
50166;BME280;36071;48.140;11.516;2023-05-01T17:48:52;95380.0;;;12.0;96.0
50166;BME280;36071;48.140;11.516;2023-05-01T17:53:52;95380.0;;;12.0;97.1
50166;BME280;36071;48.140;11.516;2023-05-01T17:58:52;95380.0;;;11.9;97.4
50166;BME280;36071;48.140;11.516;2023-05-01T18:03:53;95390.0;;;11.9;98.2
50166;BME280;36071;48.140;11.516;2023-05-01T18:08:52;95400.0;;;12.0;97.7
50166;BME280;36071;48.140;11.516;2023-05-01T18:13:52;95400.0;;;11.9;98.2
50166;BME280;36071;48.140;11.516;2023-05-01T18:18:52;95400.0;;;11.9;99.0
50166;BME280;36071;48.140;11.516;2023-05-01T18:23:52;95410.0;;;11.8;99.8
50166;BME280;36071;48.140;11.516;2023-05-01T18:28:52;95420.0;;;11.8;100.0
50166;BME280;36071;48.140;11.516;2023-05-01T18:33:52;95430.0;;;11.8;100.0
50166;BME280;36071;48.140;11.516;2023-05-01T18:38:52;95420.0;;;11.8;100.0
50166;BME280;36071;48.140;11.516;2023-05-01T18:43:53;95440.0;;;11.7;100.0
50166;BME280;36071;48.140;11.516;2023-05-01T18:53:52;95450.0;;;11.6;100.0
50166;BME280;36071;48.140;11.516;2023-05-01T19:03:52;95460.0;;;11.5;100.0
50166;BME280;36071;48.140;11.516;2023-05-01T19:13:52;95470.0;;;11.6;100.0
50166;BME280;36071;48.140;11.516;2023-05-01T19:23:52;95470.0;;;11.6;99.1
50166;BME280;36071;48.140;11.516;2023-05-01T19:28:52;95470.0;;;11.6;99.3
50166;BME280;36071;48.140;11.516;2023-05-01T19:33:52;95470.0;;;11.6;99.1
50166;BME280;36071;48.140;11.516;2023-05-01T19:38:52;95470.0;;;11.4;99.4
50166;BME280;36071;48.140;11.516;2023-05-01T19:43:52;95470.0;;;11.4;99.0
50166;BME280;36071;48.140;11.516;2023-05-01T19:48:52;95480.0;;;11.5;99.3
50166;BME280;36071;48.140;11.516;2023-05-01T19:53:52;95480.0;;;11.3;99.1
50166;BME280;36071;48.140;11.516;2023-05-01T19:58:52;95490.0;;;11.3;99.7
50166;BME280;36071;48.140;11.516;2023-05-01T20:03:52;95490.0;;;11.1;100.0
50166;BME280;36071;48.140;11.516;2023-05-01T20:08:52;95500.0;;;11.1;100.0
50166;BME280;36071;48.140;11.516;2023-05-01T20:13:52;95500.0;;;11.1;98.2
50166;BME280;36071;48.140;11.516;2023-05-01T20:18:52;95500.0;;;11.1;99.3
50166;BME280;36071;48.140;11.516;2023-05-01T20:23:52;95510.0;;;11.1;99.0
50166;BME280;36071;48.140;11.516;2023-05-01T20:28:52;95520.0;;;11.0;97.0
50166;BME280;36071;48.140;11.516;2023-05-01T20:33:52;95520.0;;;10.9;95.7
50166;BME280;36071;48.140;11.516;2023-05-01T20:43:52;95520.0;;;10.9;96.9
50166;BME280;36071;48.140;11.516;2023-05-01T20:48:52;95520.0;;;10.8;99.3
50166;BME280;36071;48.140;11.516;2023-05-01T20:53:52;95530.0;;;10.8;99.9
50166;BME280;36071;48.140;11.516;2023-05-01T20:58:52;95540.0;;;10.8;99.7
50166;BME280;36071;48.140;11.516;2023-05-01T21:03:52;95530.0;;;10.8;100.0
50166;BME280;36071;48.140;11.516;2023-05-01T21:08:52;95530.0;;;10.8;98.8
50166;BME280;36071;48.140;11.516;2023-05-01T21:13:52;95540.0;;;10.8;98.6
50166;BME280;36071;48.140;11.516;2023-05-01T21:18:52;95540.0;;;10.7;98.6
50166;BME280;36071;48.140;11.516;2023-05-01T21:23:52;95550.0;;;10.6;100.0
50166;BME280;36071;48.140;11.516;2023-05-01T21:28:52;95550.0;;;10.6;99.7
50166;BME280;36071;48.140;11.516;2023-05-01T21:33:52;95550.0;;;10.5;100.0
50166;BME280;36071;48.140;11.516;2023-05-01T21:38:52;95550.0;;;10.6;100.0
50166;BME280;36071;48.140;11.516;2023-05-01T21:43:52;95540.0;;;10.6;99.5
50166;BME280;36071;48.140;11.516;2023-05-01T21:48:52;95550.0;;;10.5;100.0
50166;BME280;36071;48.140;11.516;2023-05-01T21:53:52;95560.0;;;10.5;100.0
50166;BME280;36071;48.140;11.516;2023-05-01T21:58:53;95570.0;;;10.4;100.0
50166;BME280;36071;48.140;11.516;2023-05-01T22:13:52;95570.0;;;10.3;100.0
50166;BME280;36071;48.140;11.516;2023-05-01T22:23:52;95570.0;;;10.4;100.0
50166;BME280;36071;48.140;11.516;2023-05-01T22:28:52;95580.0;;;10.3;100.0
50166;BME280;36071;48.140;11.516;2023-05-01T22:33:52;95580.0;;;10.4;100.0
50166;BME280;36071;48.140;11.516;2023-05-01T22:38:52;95590.0;;;10.4;100.0
50166;BME280;36071;48.140;11.516;2023-05-01T22:43:52;95580.0;;;10.4;100.0
50166;BME280;36071;48.140;11.516;2023-05-01T22:48:52;95590.0;;;10.4;100.0
50166;BME280;36071;48.140;11.516;2023-05-01T22:53:52;95580.0;;;10.4;100.0
50166;BME280;36071;48.140;11.516;2023-05-01T22:58:52;95590.0;;;10.4;100.0
50166;BME280;36071;48.140;11.516;2023-05-01T23:03:52;95590.0;;;10.3;100.0
50166;BME280;36071;48.140;11.516;2023-05-01T23:13:52;95600.0;;;10.2;100.0
50166;BME280;36071;48.140;11.516;2023-05-01T23:18:52;95590.0;;;10.3;100.0
50166;BME280;36071;48.140;11.516;2023-05-01T23:23:52;95600.0;;;10.3;100.0
50166;BME280;36071;48.140;11.516;2023-05-01T23:28:52;95590.0;;;10.3;100.0
50166;BME280;36071;48.140;11.516;2023-05-01T23:33:52;95590.0;;;10.2;100.0
50166;BME280;36071;48.140;11.516;2023-05-01T23:38:52;95580.0;;;10.2;100.0
50166;BME280;36071;48.140;11.516;2023-05-01T23:43:52;95590.0;;;10.2;100.0
50166;BME280;36071;48.140;11.516;2023-05-01T23:53:52;95480.0;;;9.5;100.0
50166;BME280;36071;48.140;11.516;2023-05-01T23:58:52;95590.0;;;10.1;100.0
